Time;durP1;ratioP1;P1;durP2;ratioP2;P2;SDS_P1;SDS_P2;PMS_P1;PMS_P2;Temp;Humidity;BMP_temperature;BMP_pressure;BME280_temperature;BME280_humidity;BME280_pressure;Samples;Min_cycle;Max_cycle;Signal;HPM_P1;HPM_P2
2024/02/02 00:02:25;;;;;;;24.50;3.67;;;;;;;;;;5041730;28;20471;-30
2024/02/02 00:04:52;;;;;;;30.08;3.30;;;;;;;;;;5036621;28;20498;-30
2024/02/02 00:07:19;;;;;;;20.38;3.60;;;;;;;;;;5042834;28;20361;-30
2024/02/02 00:09:47;;;;;;;20.60;3.53;;;;;;;;;;5050948;28;20064;-30
2024/02/02 00:12:14;;;;;;;21.40;3.20;;;;;;;;;;5039683;28;20095;-31
2024/02/02 00:14:41;;;;;;;27.83;3.25;;;;;;;;;;5042839;28;20444;-30
2024/02/02 00:17:08;;;;;;;23.48;3.13;;;;;;;;;;5034091;28;20033;-30
2024/02/02 00:19:35;;;;;;;17.05;2.95;;;;;;;;;;5049950;28;20033;-30
2024/02/02 00:22:02;;;;;;;19.95;3.00;;;;;;;;;;5050804;28;20055;-30
2024/02/02 00:24:29;;;;;;;22.15;3.00;;;;;;;;;;5050373;28;20034;-30
2024/02/02 00:26:56;;;;;;;16.38;2.58;;;;;;;;;;5050798;28;20040;-30
2024/02/02 00:29:23;;;;;;;18.95;2.88;;;;;;;;;;5050588;28;20067;-30
2024/02/02 00:31:50;;;;;;;17.38;2.40;;;;;;;;;;5035984;28;20052;-30
2024/02/02 00:34:17;;;;;;;32.63;3.35;;;;;;;;;;5046331;28;20029;-32
2024/02/02 00:36:44;;;;;;;24.75;3.05;;;;;;;;;;5049364;28;20044;-31
2024/02/02 00:39:11;;;;;;;27.65;3.10;;;;;;;;;;5050898;28;20052;-31
2024/02/02 00:41:38;;;;;;;19.92;3.15;;;;;;;;;;5051003;28;20055;-31
2024/02/02 00:44:06;;;;;;;26.75;3.15;;;;;;;;;;5050831;28;20061;-31
2024/02/02 00:46:33;;;;;;;25.83;2.97;;;;;;;;;;5050069;28;20061;-31
2024/02/02 00:49:01;;;;;;;27.15;3.45;;;;;;;;;;5050570;28;20055;-31
2024/02/02 00:51:28;;;;;;;30.40;3.10;;;;;;;;;;5050721;28;20029;-31
2024/02/02 00:53:55;;;;;;;36.45;3.53;;;;;;;;;;5050637;28;20024;-31
2024/02/02 00:56:24;;;;;;;41.08;3.70;;;;;;;;;;5050336;28;20091;-31
2024/02/02 00:58:51;;;;;;;32.22;3.13;;;;;;;;;;5050415;28;20059;-31
2024/02/02 01:01:18;;;;;;;29.95;3.28;;;;;;;;;;5042805;28;20025;-31
2024/02/02 01:03:45;;;;;;;44.13;3.65;;;;;;;;;;5039481;28;20024;-31
2024/02/02 01:06:12;;;;;;;47.10;4.18;;;;;;;;;;5050770;28;20028;-31
2024/02/02 01:08:39;;;;;;;30.20;3.88;;;;;;;;;;5050288;28;20458;-31
2024/02/02 01:11:06;;;;;;;33.70;3.60;;;;;;;;;;5050519;28;20093;-31
2024/02/02 01:13:34;;;;;;;39.97;4.35;;;;;;;;;;5050133;28;20039;-31
2024/02/02 01:16:01;;;;;;;34.33;3.50;;;;;;;;;;5053345;28;20426;-32
2024/02/02 01:18:28;;;;;;;36.40;3.80;;;;;;;;;;5053210;28;20032;-31
2024/02/02 01:20:55;;;;;;;43.88;4.00;;;;;;;;;;5046265;28;20032;-31
2024/02/02 01:23:22;;;;;;;34.55;3.65;;;;;;;;;;5050246;28;20048;-31
2024/02/02 01:25:49;;;;;;;29.83;3.08;;;;;;;;;;5045605;28;20111;-32
2024/02/02 01:28:16;;;;;;;25.00;2.97;;;;;;;;;;5051076;28;20061;-31
2024/02/02 01:30:44;;;;;;;24.42;3.22;;;;;;;;;;5047204;28;20041;-31
2024/02/02 01:33:13;;;;;;;29.08;3.00;;;;;;;;;;5049310;28;20071;-32
2024/02/02 01:35:42;;;;;;;36.38;3.83;;;;;;;;;;5041703;28;20479;-32
2024/02/02 01:38:10;;;;;;;27.73;3.40;;;;;;;;;;5036995;28;20380;-31
2024/02/02 01:40:37;;;;;;;19.23;3.10;;;;;;;;;;5039727;28;20052;-31
2024/02/02 01:43:05;;;;;;;25.20;3.10;;;;;;;;;;5051422;28;20037;-31
2024/02/02 01:45:32;;;;;;;27.80;5.45;;;;;;;;;;5045380;28;20029;-31
2024/02/02 01:48:00;;;;;;;53.22;26.50;;;;;;;;;;5052960;28;20017;-31
2024/02/02 01:50:27;;;;;;;74.15;43.35;;;;;;;;;;5051161;28;20114;-31
2024/02/02 01:52:54;;;;;;;57.13;34.83;;;;;;;;;;5049615;28;20078;-31
2024/02/02 01:55:21;;;;;;;53.80;29.92;;;;;;;;;;5052696;28;20053;-31
2024/02/02 01:57:48;;;;;;;47.60;25.15;;;;;;;;;;5052624;28;20048;-31
2024/02/02 02:00:16;;;;;;;50.55;22.58;;;;;;;;;;5052744;28;20024;-30
2024/02/02 02:02:43;;;;;;;42.90;19.25;;;;;;;;;;5052060;28;20483;-31
2024/02/02 02:05:10;;;;;;;36.03;15.75;;;;;;;;;;5043493;28;20086;-30
2024/02/02 02:07:39;;;;;;;31.33;13.65;;;;;;;;;;5049720;28;20028;-30
2024/02/02 02:10:07;;;;;;;30.83;11.80;;;;;;;;;;5052120;28;20110;-31
2024/02/02 02:12:34;;;;;;;29.92;9.52;;;;;;;;;;5052802;28;20376;-31
2024/02/02 02:15:02;;;;;;;30.33;8.73;;;;;;;;;;5034022;28;20715;-31
2024/02/02 02:17:28;;;;;;;18.65;6.93;;;;;;;;;;5037527;28;20037;-31
2024/02/02 02:19:58;;;;;;;27.63;6.88;;;;;;;;;;5047287;28;20024;-31
2024/02/02 02:22:25;;;;;;;23.67;5.97;;;;;;;;;;5050911;28;20032;-31
2024/02/02 02:24:52;;;;;;;24.38;5.72;;;;;;;;;;5052356;28;20029;-31
2024/02/02 02:27:19;;;;;;;20.15;4.32;;;;;;;;;;5051797;28;20021;-31
2024/02/02 02:29:46;;;;;;;19.27;4.38;;;;;;;;;;5048961;28;20040;-31
2024/02/02 02:32:13;;;;;;;17.73;4.03;;;;;;;;;;5051667;28;20017;-31
2024/02/02 02:34:40;;;;;;;15.93;3.53;;;;;;;;;;5040401;28;20029;-31
2024/02/02 02:37:07;;;;;;;16.45;2.90;;;;;;;;;;5046762;28;20336;-32
2024/02/02 02:39:34;;;;;;;16.38;3.13;;;;;;;;;;5047537;28;20041;-31
2024/02/02 02:42:07;;;;;;;16.70;2.90;;;;;;;;;;5052081;28;20045;-31
2024/02/02 02:44:34;;;;;;;18.33;3.00;;;;;;;;;;5038108;28;20107;-31
2024/02/02 02:47:01;;;;;;;18.77;2.75;;;;;;;;;;5043164;28;20449;-31
2024/02/02 02:49:28;;;;;;;19.02;2.85;;;;;;;;;;5037205;28;20124;-31
2024/02/02 02:51:55;;;;;;;18.40;3.03;;;;;;;;;;5044419;28;20036;-30
2024/02/02 02:54:22;;;;;;;57.00;4.50;;;;;;;;;;5052236;28;20021;-29
2024/02/02 02:56:49;;;;;;;21.88;2.75;;;;;;;;;;5041294;28;20140;-29
2024/02/02 02:59:16;;;;;;;14.57;2.28;;;;;;;;;;5047225;28;20023;-29
2024/02/02 03:01:44;;;;;;;14.55;2.25;;;;;;;;;;5052135;28;20120;-29
2024/02/02 03:04:11;;;;;;;22.45;2.28;;;;;;;;;;5051409;28;20562;-29
2024/02/02 03:06:38;;;;;;;21.42;2.30;;;;;;;;;;5050780;28;20607;-30
2024/02/02 03:09:04;;;;;;;26.48;2.38;;;;;;;;;;5049739;28;20055;-30
2024/02/02 03:11:31;;;;;;;26.33;3.38;;;;;;;;;;5050846;28;20486;-29
2024/02/02 03:13:58;;;;;;;16.88;2.33;;;;;;;;;;5050589;28;20068;-33
2024/02/02 03:16:25;;;;;;;44.03;3.58;;;;;;;;;;5048580;28;20039;-29
2024/02/02 03:18:52;;;;;;;34.88;2.65;;;;;;;;;;5049750;28;20079;-30
2024/02/02 03:21:19;;;;;;;12.18;2.00;;;;;;;;;;5050662;28;20464;-30
2024/02/02 03:23:46;;;;;;;20.90;2.70;;;;;;;;;;5050478;28;20451;-29
2024/02/02 03:26:13;;;;;;;39.03;3.88;;;;;;;;;;5050449;28;20048;-29
2024/02/02 03:28:41;;;;;;;19.73;2.22;;;;;;;;;;5049872;28;20049;-29
2024/02/02 03:31:08;;;;;;;22.55;2.20;;;;;;;;;;5050392;28;20090;-29
2024/02/02 03:33:35;;;;;;;21.15;2.30;;;;;;;;;;5049890;28;20039;-29
2024/02/02 03:36:02;;;;;;;28.45;2.60;;;;;;;;;;5050050;28;20091;-30
2024/02/02 03:38:29;;;;;;;15.88;2.13;;;;;;;;;;5048788;28;20059;-29
2024/02/02 03:40:56;;;;;;;30.13;2.15;;;;;;;;;;5044089;28;20029;-29
2024/02/02 03:43:23;;;;;;;21.73;2.17;;;;;;;;;;5037375;28;20025;-29
2024/02/02 03:45:50;;;;;;;36.92;3.38;;;;;;;;;;5038323;28;20025;-29
2024/02/02 03:48:17;;;;;;;25.05;2.65;;;;;;;;;;5038950;28;20103;-29
2024/02/02 03:50:44;;;;;;;19.02;1.77;;;;;;;;;;5042416;28;20091;-29
2024/02/02 03:53:11;;;;;;;13.35;1.90;;;;;;;;;;5039858;28;21864;-29
2024/02/02 03:55:38;;;;;;;13.57;1.63;;;;;;;;;;5035185;28;20041;-29
2024/02/02 03:58:05;;;;;;;13.00;2.08;;;;;;;;;;5031076;28;20050;-29
2024/02/02 04:00:32;;;;;;;13.60;1.90;;;;;;;;;;5031039;28;20030;-29
2024/02/02 04:03:02;;;;;;;7.57;1.77;;;;;;;;;;5030752;28;20391;-29
2024/02/02 04:05:35;;;;;;;9.38;1.60;;;;;;;;;;5031292;28;20113;-29
2024/02/02 04:08:02;;;;;;;16.17;1.65;;;;;;;;;;5030951;28;20507;-29
2024/02/02 04:10:32;;;;;;;9.93;1.60;;;;;;;;;;5030965;28;20122;-29
2024/02/02 04:13:03;;;;;;;13.15;1.95;;;;;;;;;;5031020;28;20099;-29
2024/02/02 04:15:30;;;;;;;8.82;1.60;;;;;;;;;;5031196;28;20033;-29
2024/02/02 04:17:59;;;;;;;6.53;1.70;;;;;;;;;;5031105;28;20040;-29
2024/02/02 04:20:26;;;;;;;12.35;1.55;;;;;;;;;;5030812;28;20029;-29
2024/02/02 04:22:54;;;;;;;11.65;1.60;;;;;;;;;;5031034;28;20022;-29
2024/02/02 04:25:21;;;;;;;8.63;2.08;;;;;;;;;;5031238;28;20029;-29
2024/02/02 04:27:48;;;;;;;11.48;1.65;;;;;;;;;;5030930;28;20101;-29
2024/02/02 04:30:18;;;;;;;10.40;1.63;;;;;;;;;;5030630;28;20041;-29
2024/02/02 04:32:45;;;;;;;8.55;1.70;;;;;;;;;;5031019;28;20151;-29
2024/02/02 04:35:12;;;;;;;11.68;1.67;;;;;;;;;;5031098;28;20487;-29
2024/02/02 04:37:42;;;;;;;9.93;1.50;;;;;;;;;;5030938;28;20029;-29
2024/02/02 04:40:12;;;;;;;10.00;1.40;;;;;;;;;;5030836;28;20163;-29
2024/02/02 04:42:39;;;;;;;8.02;1.40;;;;;;;;;;5031095;28;20399;-29
2024/02/02 04:45:07;;;;;;;10.23;1.38;;;;;;;;;;5030809;28;20026;-29
2024/02/02 04:47:33;;;;;;;11.15;1.40;;;;;;;;;;5030054;28;20172;-29
2024/02/02 04:50:00;;;;;;;10.77;1.33;;;;;;;;;;5032041;28;20041;-29
2024/02/02 04:52:30;;;;;;;13.77;1.88;;;;;;;;;;5034860;28;20029;-29
2024/02/02 04:55:00;;;;;;;12.27;1.80;;;;;;;;;;5034602;28;20480;-29
2024/02/02 04:57:30;;;;;;;11.98;1.40;;;;;;;;;;5034426;28;20064;-29
2024/02/02 05:00:00;;;;;;;13.95;1.63;;;;;;;;;;5034217;28;20061;-29
2024/02/02 05:02:27;;;;;;;7.32;1.27;;;;;;;;;;5034334;28;20045;-29
2024/02/02 05:04:54;;;;;;;13.98;1.58;;;;;;;;;;5034334;28;20029;-29
2024/02/02 05:07:21;;;;;;;12.38;1.48;;;;;;;;;;5034482;28;20029;-29
2024/02/02 05:09:48;;;;;;;12.77;1.40;;;;;;;;;;5034019;28;20075;-29
2024/02/02 05:12:18;;;;;;;13.55;1.65;;;;;;;;;;5034486;28;20112;-29
2024/02/02 05:14:45;;;;;;;7.95;1.40;;;;;;;;;;5034173;28;20078;-29
2024/02/02 05:17:15;;;;;;;9.60;1.48;;;;;;;;;;5034158;28;20026;-29
2024/02/02 05:19:42;;;;;;;10.70;1.55;;;;;;;;;;5033938;28;20033;-29
2024/02/02 05:22:09;;;;;;;9.02;1.80;;;;;;;;;;5034302;28;20022;-29
2024/02/02 05:24:36;;;;;;;12.90;1.70;;;;;;;;;;5034125;28;20060;-29
2024/02/02 05:27:03;;;;;;;12.77;1.77;;;;;;;;;;5033795;28;20036;-28
2024/02/02 05:29:30;;;;;;;11.00;1.67;;;;;;;;;;5033623;28;20117;-29
2024/02/02 05:31:57;;;;;;;7.82;1.27;;;;;;;;;;5034103;28;20029;-29
2024/02/02 05:34:24;;;;;;;11.00;1.50;;;;;;;;;;5043401;28;20037;-29
2024/02/02 05:36:51;;;;;;;13.65;1.70;;;;;;;;;;5053724;28;20060;-29
2024/02/02 05:39:18;;;;;;;7.95;1.30;;;;;;;;;;5053448;28;20063;-29
2024/02/02 05:41:45;;;;;;;11.52;1.45;;;;;;;;;;5053845;28;20040;-29
2024/02/02 05:44:12;;;;;;;12.40;1.40;;;;;;;;;;5053831;28;20028;-29
2024/02/02 05:46:39;;;;;;;10.77;1.40;;;;;;;;;;5053746;28;20142;-29
2024/02/02 05:49:06;;;;;;;10.15;1.50;;;;;;;;;;5053156;28;20043;-29
2024/02/02 05:51:32;;;;;;;10.05;1.60;;;;;;;;;;5053649;28;20061;-29
2024/02/02 05:54:01;;;;;;;14.85;1.95;;;;;;;;;;5053477;28;20025;-29
2024/02/02 05:56:28;;;;;;;17.02;1.70;;;;;;;;;;5053430;28;20085;-29
2024/02/02 05:58:55;;;;;;;15.75;1.73;;;;;;;;;;5052996;28;20479;-28
2024/02/02 06:01:22;;;;;;;12.18;1.75;;;;;;;;;;5047482;28;20033;-29
2024/02/02 06:03:48;;;;;;;13.98;1.77;;;;;;;;;;5053309;28;20041;-29
2024/02/02 06:06:16;;;;;;;11.60;1.70;;;;;;;;;;5053350;28;20506;-29
2024/02/02 06:08:42;;;;;;;9.30;1.50;;;;;;;;;;5052976;28;20037;-29
2024/02/02 06:11:09;;;;;;;7.82;1.65;;;;;;;;;;5053253;28;20104;-29
2024/02/02 06:13:36;;;;;;;15.70;1.35;;;;;;;;;;5053334;28;20029;-29
2024/02/02 06:16:03;;;;;;;11.07;1.40;;;;;;;;;;5053263;28;20043;-29
2024/02/02 06:18:30;;;;;;;10.20;1.50;;;;;;;;;;5052967;28;20021;-29
2024/02/02 06:20:57;;;;;;;23.27;2.03;;;;;;;;;;5051689;28;20063;-29
2024/02/02 06:23:24;;;;;;;19.05;1.95;;;;;;;;;;5052873;28;20037;-29
2024/02/02 06:25:51;;;;;;;16.25;1.65;;;;;;;;;;5053043;28;20036;-28
2024/02/02 06:28:18;;;;;;;11.68;1.88;;;;;;;;;;5052949;28;20033;-29
2024/02/02 06:30:49;;;;;;;13.48;2.15;;;;;;;;;;5052667;28;20021;-29
2024/02/02 06:33:16;;;;;;;11.98;1.80;;;;;;;;;;5052623;28;20555;-29
2024/02/02 06:35:44;;;;;;;10.70;1.63;;;;;;;;;;5052770;28;20108;-29
2024/02/02 06:38:11;;;;;;;14.13;1.48;;;;;;;;;;5052707;28;20402;-29
2024/02/02 06:40:39;;;;;;;13.63;1.50;;;;;;;;;;5051041;28;20368;-29
2024/02/02 06:43:06;;;;;;;7.57;1.98;;;;;;;;;;5052618;28;20032;-29
2024/02/02 06:45:33;;;;;;;11.40;1.67;;;;;;;;;;5052722;28;20489;-29
2024/02/02 06:48:00;;;;;;;10.30;1.50;;;;;;;;;;5052504;28;20389;-29
2024/02/02 06:50:27;;;;;;;12.15;1.60;;;;;;;;;;5052210;28;20122;-29
2024/02/02 06:52:54;;;;;;;12.45;1.60;;;;;;;;;;5052556;28;20116;-29
2024/02/02 06:55:21;;;;;;;10.63;1.55;;;;;;;;;;5051410;28;20040;-29
2024/02/02 06:57:48;;;;;;;10.30;1.65;;;;;;;;;;5051848;28;20411;-29
2024/02/02 07:00:16;;;;;;;12.07;1.80;;;;;;;;;;5052099;28;20036;-29
2024/02/02 07:02:43;;;;;;;11.43;1.95;;;;;;;;;;5052441;28;20115;-29
2024/02/02 07:05:13;;;;;;;13.95;1.95;;;;;;;;;;5049349;28;20041;-29
2024/02/02 07:07:40;;;;;;;8.73;1.85;;;;;;;;;;5032262;28;20428;-29
2024/02/02 07:10:10;;;;;;;7.30;1.75;;;;;;;;;;5031809;28;20049;-29
2024/02/02 07:12:53;;;;;;;5.45;1.40;;;;;;;;;;5032083;28;20029;-29
2024/02/02 07:15:21;;;;;;;10.27;1.60;;;;;;;;;;5032250;28;20081;-29
2024/02/02 07:17:50;;;;;;;12.73;1.67;;;;;;;;;;5030651;28;20116;-29
2024/02/02 07:20:19;;;;;;;7.00;2.08;;;;;;;;;;5031781;28;20405;-29
2024/02/02 07:22:47;;;;;;;10.43;2.03;;;;;;;;;;5032141;28;20021;-29
2024/02/02 07:25:20;;;;;;;13.07;2.35;;;;;;;;;;5031709;28;20442;-29
2024/02/02 07:28:17;;;;;;;6.85;1.77;;;;;;;;;;5032040;28;20034;-29
2024/02/02 07:30:55;;;;;;;16.05;2.25;;;;;;;;;;5030908;28;20057;-29
2024/02/02 07:33:41;;;;;;;13.65;2.38;;;;;;;;;;5031925;28;20033;-29
2024/02/02 07:36:10;;;;;;;10.65;2.10;;;;;;;;;;5031929;28;20444;-29
2024/02/02 07:38:37;;;;;;;8.60;1.92;;;;;;;;;;5031524;28;20025;-29
2024/02/02 07:41:04;;;;;;;12.32;2.13;;;;;;;;;;5031852;28;20029;-29
2024/02/02 07:43:33;;;;;;;11.40;2.33;;;;;;;;;;5031811;28;20033;-28
2024/02/02 07:46:00;;;;;;;11.75;2.80;;;;;;;;;;5031665;28;20120;-29
2024/02/02 07:48:27;;;;;;;13.13;2.30;;;;;;;;;;5031372;28;20116;-29
2024/02/02 07:50:54;;;;;;;14.93;2.38;;;;;;;;;;5031711;28;20475;-29
2024/02/02 07:53:22;;;;;;;11.27;2.50;;;;;;;;;;5031075;28;20094;-29
2024/02/02 07:55:49;;;;;;;15.63;2.35;;;;;;;;;;5031653;28;20057;-29
2024/02/02 07:58:17;;;;;;;18.38;2.70;;;;;;;;;;5031341;28;20042;-28
2024/02/02 08:00:43;;;;;;;16.50;2.50;;;;;;;;;;5031305;28;20029;-29
2024/02/02 08:03:10;;;;;;;20.20;2.42;;;;;;;;;;5031488;28;20395;-29
2024/02/02 08:05:38;;;;;;;11.82;2.35;;;;;;;;;;5031497;28;20029;-29
2024/02/02 08:08:05;;;;;;;12.65;2.25;;;;;;;;;;5031403;28;20502;-29
2024/02/02 08:10:32;;;;;;;14.07;2.42;;;;;;;;;;5031047;28;20373;-29
2024/02/02 08:12:59;;;;;;;21.27;2.88;;;;;;;;;;5030068;28;20395;-29
2024/02/02 08:15:26;;;;;;;22.40;2.80;;;;;;;;;;5031445;28;20435;-28
2024/02/02 08:17:54;;;;;;;19.75;2.75;;;;;;;;;;5031450;28;20390;-29
2024/02/02 08:20:21;;;;;;;25.00;3.05;;;;;;;;;;5031121;28;20442;-29
2024/02/02 08:22:47;;;;;;;18.85;2.88;;;;;;;;;;5031480;28;20032;-28
2024/02/02 08:25:15;;;;;;;21.73;2.50;;;;;;;;;;5033214;28;20546;-29
2024/02/02 08:27:42;;;;;;;22.33;2.55;;;;;;;;;;5035424;28;20040;-29
2024/02/02 08:30:10;;;;;;;28.25;3.25;;;;;;;;;;5034849;28;20043;-29
2024/02/02 08:32:40;;;;;;;19.42;2.88;;;;;;;;;;5035210;28;20538;-29
2024/02/02 08:35:07;;;;;;;16.77;2.60;;;;;;;;;;5035255;28;20029;-29
2024/02/02 08:37:35;;;;;;;20.35;2.78;;;;;;;;;;5039663;28;20033;-29
2024/02/02 08:40:02;;;;;;;11.80;2.92;;;;;;;;;;5054854;28;20020;-29
2024/02/02 08:42:29;;;;;;;18.77;3.03;;;;;;;;;;5055015;28;20150;-29
2024/02/02 08:44:56;;;;;;;15.27;3.03;;;;;;;;;;5055129;28;20021;-28
2024/02/02 08:47:23;;;;;;;20.25;2.45;;;;;;;;;;5054870;28;20522;-28
2024/02/02 08:49:55;;;;;;;13.10;2.50;;;;;;;;;;5053042;28;20043;-29
2024/02/02 08:52:32;;;;;;;19.83;2.28;;;;;;;;;;5054966;28;20087;-29
2024/02/02 08:55:02;;;;;;;14.23;2.45;;;;;;;;;;5054824;28;20392;-28
2024/02/02 08:57:33;;;;;;;18.42;3.10;;;;;;;;;;5054476;28;20041;-29
2024/02/02 09:00:29;;;;;;;17.77;2.65;;;;;;;;;;5054245;28;20025;-29
2024/02/02 09:03:06;;;;;;;10.93;2.35;;;;;;;;;;5049943;28;20037;-29
2024/02/02 09:05:59;;;;;;;14.68;2.63;;;;;;;;;;5054648;28;20036;-29
2024/02/02 09:08:33;;;;;;;15.45;2.55;;;;;;;;;;5052971;28;20053;-29
2024/02/02 09:11:01;;;;;;;17.45;2.55;;;;;;;;;;5054521;28;20033;-29
2024/02/02 09:13:30;;;;;;;14.05;2.40;;;;;;;;;;5054360;28;20479;-29
2024/02/02 09:15:57;;;;;;;8.32;2.03;;;;;;;;;;5054404;28;20025;-29
2024/02/02 09:18:33;;;;;;;12.35;2.60;;;;;;;;;;5054196;28;20029;-29
2024/02/02 09:21:00;;;;;;;11.40;1.98;;;;;;;;;;5054194;28;20487;-29
2024/02/02 09:23:32;;;;;;;11.90;2.63;;;;;;;;;;5049766;28;20041;-29
2024/02/02 09:26:00;;;;;;;11.02;2.13;;;;;;;;;;5034217;28;20059;-29
2024/02/02 09:28:27;;;;;;;9.98;1.85;;;;;;;;;;5032405;28;20033;-29
2024/02/02 09:31:00;;;;;;;14.02;2.22;;;;;;;;;;5034125;28;20026;-29
2024/02/02 09:33:27;;;;;;;13.50;2.00;;;;;;;;;;5034419;28;20555;-29
2024/02/02 09:35:54;;;;;;;14.77;2.40;;;;;;;;;;5034140;28;20039;-29
2024/02/02 09:38:22;;;;;;;11.23;2.80;;;;;;;;;;5033935;28;20084;-29
2024/02/02 09:41:07;;;;;;;14.15;2.30;;;;;;;;;;5033998;28;20113;-28
2024/02/02 09:43:43;;;;;;;10.60;2.20;;;;;;;;;;5034094;28;20112;-29
2024/02/02 09:46:26;;;;;;;11.80;2.42;;;;;;;;;;5033881;28;20029;-28
2024/02/02 09:48:56;;;;;;;16.58;2.92;;;;;;;;;;5033473;28;20061;-28
2024/02/02 09:51:42;;;;;;;24.55;3.88;;;;;;;;;;5033955;28;20025;-29
2024/02/02 09:54:31;;;;;;;19.27;4.30;;;;;;;;;;5033868;28;20179;-29
2024/02/02 09:57:01;;;;;;;21.02;3.42;;;;;;;;;;5033352;28;20072;-29
2024/02/02 09:59:35;;;;;;;19.83;3.05;;;;;;;;;;5033280;28;20050;-29
2024/02/02 10:02:05;;;;;;;22.45;3.03;;;;;;;;;;5033714;28;20484;-29
2024/02/02 10:04:40;;;;;;;21.10;3.38;;;;;;;;;;5033640;28;20542;-29
2024/02/02 10:07:16;;;;;;;13.25;2.63;;;;;;;;;;5033388;28;20028;-29
2024/02/02 10:09:51;;;;;;;13.65;2.75;;;;;;;;;;5032056;28;20037;-29
2024/02/02 10:12:27;;;;;;;20.60;2.83;;;;;;;;;;5033425;28;20029;-29
2024/02/02 10:15:12;;;;;;;17.20;2.67;;;;;;;;;;5033474;28;20036;-29
2024/02/02 10:17:39;;;;;;;16.90;2.67;;;;;;;;;;5033357;28;20498;-29
2024/02/02 10:20:06;;;;;;;17.15;2.38;;;;;;;;;;5031563;28;20495;-28
2024/02/02 10:22:49;;;;;;;15.60;2.05;;;;;;;;;;5033198;28;20026;-29
2024/02/02 10:25:16;;;;;;;16.42;2.88;;;;;;;;;;5033032;28;20540;-29
2024/02/02 10:28:01;;;;;;;15.25;2.03;;;;;;;;;;5033113;28;20071;-29
2024/02/02 10:30:47;;;;;;;15.40;2.38;;;;;;;;;;5032710;28;20041;-29
2024/02/02 10:33:14;;;;;;;18.13;2.88;;;;;;;;;;5033107;28;20052;-29
2024/02/02 10:36:01;;;;;;;26.35;3.53;;;;;;;;;;5032910;28;20040;-29
2024/02/02 10:38:28;;;;;;;28.25;3.17;;;;;;;;;;5032599;28;20033;-29
2024/02/02 10:40:55;;;;;;;16.85;2.85;;;;;;;;;;5032905;28;20392;-29
2024/02/02 10:43:25;;;;;;;24.85;3.10;;;;;;;;;;5032828;28;20036;-29
2024/02/02 10:45:55;;;;;;;25.80;3.78;;;;;;;;;;5032961;28;20030;-29
2024/02/02 10:48:22;;;;;;;36.90;4.82;;;;;;;;;;5032009;28;20041;-29
2024/02/02 10:51:04;;;;;;;41.45;6.55;;;;;;;;;;5032701;28;20574;-29
2024/02/02 10:53:49;;;;;;;41.00;4.75;;;;;;;;;;5032752;28;20140;-29
2024/02/02 10:56:36;;;;;;;47.88;5.40;;;;;;;;;;5032229;28;20064;-29
2024/02/02 10:59:04;;;;;;;42.10;5.45;;;;;;;;;;5032174;28;20407;-29
2024/02/02 11:01:34;;;;;;;30.23;4.35;;;;;;;;;;5032435;28;20103;-29
2024/02/02 11:04:15;;;;;;;19.20;3.30;;;;;;;;;;5032611;28;20369;-29
2024/02/02 11:06:54;;;;;;;22.15;3.15;;;;;;;;;;5032440;28;20029;-29
2024/02/02 11:09:24;;;;;;;19.58;3.30;;;;;;;;;;5031973;28;20127;-29
2024/02/02 11:11:57;;;;;;;21.25;3.08;;;;;;;;;;5032328;28;20053;-29
2024/02/02 11:14:28;;;;;;;28.10;4.88;;;;;;;;;;5032202;28;20507;-29
2024/02/02 11:17:07;;;;;;;30.05;10.55;;;;;;;;;;5032198;28;20064;-29
2024/02/02 11:19:34;;;;;;;33.17;15.63;;;;;;;;;;5037107;28;20036;-29
2024/02/02 11:22:07;;;;;;;40.53;17.10;;;;;;;;;;5052181;28;20040;-29
2024/02/02 11:24:50;;;;;;;32.45;13.85;;;;;;;;;;5052063;28;20024;-29
2024/02/02 11:27:19;;;;;;;;;;;;;;;;;;5032349;28;20427;-29
2024/02/02 11:29:50;;;;;;;24.90;9.43;;;;;;;;;;5031487;28;19928;-29
2024/02/02 11:32:28;;;;;;;27.00;7.78;;;;;;;;;;5032014;28;20150;-29
2024/02/02 11:34:56;;;;;;;32.67;7.40;;;;;;;;;;5031950;28;20098;-29
2024/02/02 11:37:29;;;;;;;28.33;7.70;;;;;;;;;;5031751;28;20045;-29
2024/02/02 11:40:04;;;;;;;20.67;6.78;;;;;;;;;;5031538;28;20109;-29
2024/02/02 11:42:32;;;;;;;19.65;5.20;;;;;;;;;;5047088;28;20032;-29
2024/02/02 11:45:00;;;;;;;22.08;5.00;;;;;;;;;;5051581;28;20040;-29
2024/02/02 11:47:28;;;;;;;25.98;5.70;;;;;;;;;;5051607;28;20140;-29
2024/02/02 11:50:01;;;;;;;20.05;5.60;;;;;;;;;;5050791;28;20041;-29
2024/02/02 11:52:32;;;;;;;29.55;6.30;;;;;;;;;;5044346;28;20041;-29
2024/02/02 11:55:18;;;;;;;22.50;5.72;;;;;;;;;;5038592;28;20044;-29
2024/02/02 11:57:47;;;;;;;26.33;4.80;;;;;;;;;;5039381;28;20040;-29
2024/02/02 12:00:26;;;;;;;26.17;4.70;;;;;;;;;;5047572;28;20029;-30
2024/02/02 12:03:14;;;;;;;26.42;4.90;;;;;;;;;;5049786;28;20036;-29
2024/02/02 12:05:48;;;;;;;27.52;5.13;;;;;;;;;;5050256;28;20029;-30
2024/02/02 12:08:30;;;;;;;32.90;4.88;;;;;;;;;;5049007;28;20029;-30
2024/02/02 12:10:58;;;;;;;28.25;4.78;;;;;;;;;;5047518;28;20399;-31
2024/02/02 12:13:27;;;;;;;20.70;4.82;;;;;;;;;;5048002;28;20032;-30
2024/02/02 12:15:55;;;;;;;29.23;4.57;;;;;;;;;;5047429;28;20485;-30
2024/02/02 12:18:22;;;;;;;29.00;5.10;;;;;;;;;;5062149;22;20133;-30
2024/02/02 12:20:49;;;;;;;30.27;4.70;;;;;;;;;;5048251;28;20025;-30
2024/02/02 12:23:16;;;;;;;33.75;5.50;;;;;;;;;;5050530;28;20032;-30
2024/02/02 12:25:43;;;;;;;23.30;4.75;;;;;;;;;;5050612;28;20060;-30
2024/02/02 12:28:10;;;;;;;31.30;5.15;;;;;;;;;;5047554;28;20025;-31
2024/02/02 12:30:37;;;;;;;25.48;4.53;;;;;;;;;;5048150;28;20029;-29
2024/02/02 12:33:05;;;;;;;26.00;4.63;;;;;;;;;;5045695;28;21244;-30
2024/02/02 12:35:32;;;;;;;24.10;4.20;;;;;;;;;;5040332;28;20041;-30
2024/02/02 12:38:00;;;;;;;25.50;3.72;;;;;;;;;;5048602;28;20509;-30
2024/02/02 12:40:27;;;;;;;21.73;4.18;;;;;;;;;;5036972;28;20504;-30
2024/02/02 12:42:55;;;;;;;21.40;3.67;;;;;;;;;;5039604;28;20489;-30
2024/02/02 12:45:22;;;;;;;30.05;3.90;;;;;;;;;;5036138;28;20600;-29
2024/02/02 12:47:49;;;;;;;22.65;4.03;;;;;;;;;;5035250;28;20036;-30
2024/02/02 12:50:20;;;;;;;22.73;3.70;;;;;;;;;;5031664;28;20125;-30
2024/02/02 12:52:50;;;;;;;26.90;4.32;;;;;;;;;;5046818;28;20135;-31
2024/02/02 12:55:18;;;;;;;51.83;5.00;;;;;;;;;;5045714;28;20091;-30
2024/02/02 12:57:46;;;;;;;52.60;5.55;;;;;;;;;;5048455;28;20029;-30
2024/02/02 13:00:16;;;;;;;64.97;5.50;;;;;;;;;;5041757;28;20052;-30
2024/02/02 13:02:43;;;;;;;52.28;6.15;;;;;;;;;;5043935;28;20021;-30
2024/02/02 13:05:16;;;;;;;46.65;5.35;;;;;;;;;;5050405;28;20079;-30
2024/02/02 13:07:45;;;;;;;47.30;5.35;;;;;;;;;;5050419;28;20394;-30
2024/02/02 13:10:12;;;;;;;35.60;4.95;;;;;;;;;;5049850;28;20182;-30
2024/02/02 13:12:46;;;;;;;33.05;4.63;;;;;;;;;;5052892;28;20029;-32
2024/02/02 13:15:18;;;;;;;36.08;4.90;;;;;;;;;;5042570;28;20025;-30
2024/02/02 13:17:59;;;;;;;34.85;4.53;;;;;;;;;;5053825;28;20053;-30
2024/02/02 13:20:33;;;;;;;41.87;5.20;;;;;;;;;;5053829;28;20029;-30
2024/02/02 13:23:05;;;;;;;44.63;5.22;;;;;;;;;;5053879;28;20025;-30
2024/02/02 13:25:32;;;;;;;30.67;4.28;;;;;;;;;;5054041;28;20029;-30
2024/02/02 13:28:01;;;;;;;32.53;4.55;;;;;;;;;;5053719;28;20552;-30
2024/02/02 13:30:28;;;;;;;28.92;5.28;;;;;;;;;;5047966;28;20046;-30
2024/02/02 13:32:56;;;;;;;33.70;4.65;;;;;;;;;;5053015;28;20090;-31
2024/02/02 13:35:25;;;;;;;37.88;4.72;;;;;;;;;;5039361;28;20033;-30
2024/02/02 13:37:53;;;;;;;26.25;4.95;;;;;;;;;;5044082;28;20025;-30
2024/02/02 13:40:30;;;;;;;26.20;4.30;;;;;;;;;;5038443;28;20029;-31
2024/02/02 13:42:59;;;;;;;33.80;4.97;;;;;;;;;;5041858;28;20048;-30
2024/02/02 13:45:28;;;;;;;36.83;4.35;;;;;;;;;;5053733;28;20025;-30
2024/02/02 13:47:59;;;;;;;35.83;4.45;;;;;;;;;;5053378;28;20028;-30
2024/02/02 13:50:37;;;;;;;37.97;4.80;;;;;;;;;;5052988;28;20045;-30
2024/02/02 13:53:05;;;;;;;45.38;4.63;;;;;;;;;;5048277;28;20037;-30
2024/02/02 13:55:33;;;;;;;44.35;5.47;;;;;;;;;;5053297;28;20055;-30
2024/02/02 13:58:00;;;;;;;65.47;5.93;;;;;;;;;;5050933;28;20095;-30
2024/02/02 14:00:31;;;;;;;63.15;6.20;;;;;;;;;;5048107;28;20037;-30
2024/02/02 14:03:10;;;;;;;74.93;7.53;;;;;;;;;;5051330;28;20028;-30
2024/02/02 14:05:37;;;;;;;84.68;8.43;;;;;;;;;;5050837;28;20074;-30
2024/02/02 14:08:05;;;;;;;88.65;7.75;;;;;;;;;;5053099;28;20025;-30
2024/02/02 14:10:52;;;;;;;104.18;9.15;;;;;;;;;;5052769;28;20116;-30
2024/02/02 14:13:19;;;;;;;89.63;9.55;;;;;;;;;;5052773;28;20100;-30
2024/02/02 14:15:48;;;;;;;126.70;9.80;;;;;;;;;;5052601;28;20150;-29
2024/02/02 14:18:18;;;;;;;159.55;13.55;;;;;;;;;;5051619;28;20057;-29
2024/02/02 14:20:45;;;;;;;156.82;14.55;;;;;;;;;;5052263;28;20032;-31
2024/02/02 14:23:13;;;;;;;130.45;12.70;;;;;;;;;;5052255;28;20029;-30
2024/02/02 14:25:42;;;;;;;130.30;12.27;;;;;;;;;;5039375;28;20561;-30
2024/02/02 14:28:16;;;;;;;149.38;14.75;;;;;;;;;;5045677;28;20029;-29
2024/02/02 14:30:43;;;;;;;153.43;15.93;;;;;;;;;;5038616;28;20505;-29
2024/02/02 14:33:13;;;;;;;166.00;16.27;;;;;;;;;;5039015;28;20025;-29
2024/02/02 14:35:40;;;;;;;181.90;17.42;;;;;;;;;;5055439;28;20033;-29
2024/02/02 14:38:08;;;;;;;165.48;17.73;;;;;;;;;;5044818;28;20442;-29
2024/02/02 14:40:36;;;;;;;161.70;15.45;;;;;;;;;;5044743;28;20487;-29
2024/02/02 14:43:04;;;;;;;155.20;17.13;;;;;;;;;;5051324;28;20482;-29
2024/02/02 14:45:33;;;;;;;172.30;17.13;;;;;;;;;;5050280;28;20037;-29